Lansdowne House, Canada
Current Conditions -  °F | °C
As of 4:00 PM on Saturday 25 Oct 2014 (Local Time) from CYLH Reporting Station
Light Rain Light Rain  
Wind Chill: -2°   Ceiling: 1800
Heat Index:   Visibility: 9mi
Dew Point:   Wind: 14mph
Humidity: 100%   Direction: 290°WNW
Pressure: 29.5"   Gusts: 25mph
Location:  52.21°N, 87.89°W
Report Text: CYLH 252000Z AUTO 29012G22KT 260V320 9SM -RA SCT013 BKN018 OVC024 03/03 A2950 RMK PCPN 1.0MM PAST HR SLP001
Loading
Personal Weather Stations






























Interactive Weather Map
Tropical Storm Tracking
New forecast layout! Learn more

10-Day Weather Forecast

Advertisements
Track Severe Weather on mobile